UMOO

Mahilyow Airport

Airport
ICAO code
UMOO
IATA Code
MVQ
Summary
ICAO Region
EUR
ICAO Territory
Location

Nikitinichi, Mogilev Region

Serving
Mogilev
Elevation
637 ft
Coordinates
53° 57' 18" N , 30° 5' 42" E
KCC
Metar
UMOO 280400Z 15003MPS 6000 NSC M01/M02 Q1023 TEMPO 3000 BR SCT007

Mahilyow Airport is an airport that serves Mogilev, Belarus.

Climatology

Humid continental climate (Köppen climate classification Dfb)

Runways

Designator Length Width Surface Rops
13/31 2567 42 ASP No/No

Airport map

Aerial View

SKYbrary Partners:

Safety knowledge contributed by: